Time;durP1;ratioP1;P1;durP2;ratioP2;P2;SDS_P1;SDS_P2;PMS_P1;PMS_P2;Temp;Humidity;BMP_temperature;BMP_pressure;BME280_temperature;BME280_humidity;BME280_pressure;Samples;Min_cycle;Max_cycle;Signal;HPM_P1;HPM_P2
2022/12/16 00:00:30;;;;;;;30.65;16.02;;;-3274.70;93.60;;;;;;5027793;28;20480;-67
2022/12/16 00:03:00;;;;;;;30.88;16.73;;;-3274.70;93.60;;;;;;5030530;28;20033;-67
2022/12/16 00:05:26;;;;;;;27.85;15.88;;;-3274.70;93.60;;;;;;5023167;28;20132;-66
2022/12/16 00:07:51;;;;;;;26.90;15.77;;;-3274.70;93.60;;;;;;5026980;28;20030;-70
2022/12/16 00:10:17;;;;;;;29.20;16.02;;;-3274.70;93.70;;;;;;5030968;28;20034;-67
2022/12/16 00:12:42;;;;;;;25.75;14.82;;;-3274.70;93.70;;;;;;5031663;28;20116;-68
2022/12/16 00:15:08;;;;;;;28.85;15.77;;;-3274.70;93.70;;;;;;5030773;28;20033;-67
2022/12/16 00:17:35;;;;;;;26.23;15.20;;;-3274.70;93.60;;;;;;5033934;28;20029;-67
2022/12/16 00:20:02;;;;;;;26.83;14.98;;;-3274.70;93.40;;;;;;5033270;28;20030;-67
2022/12/16 00:22:27;;;;;;;26.02;15.25;;;-3274.70;93.40;;;;;;5018041;28;20041;-69
2022/12/16 00:24:53;;;;;;;27.00;14.85;;;-3274.60;93.40;;;;;;5030763;28;20174;-69
2022/12/16 00:27:18;;;;;;;24.05;15.32;;;-3274.60;93.30;;;;;;5028126;28;20073;-68
2022/12/16 00:29:44;;;;;;;25.60;14.00;;;-3274.60;93.40;;;;;;5028101;28;20038;-68
2022/12/16 00:32:09;;;;;;;25.38;15.60;;;-3274.60;93.50;;;;;;5029232;28;20025;-69
2022/12/16 00:34:35;;;;;;;25.60;14.90;;;-3274.60;93.50;;;;;;5031592;28;20112;-69
2022/12/16 00:37:00;;;;;;;26.95;15.15;;;-3274.50;93.50;;;;;;5028692;28;20107;-68
2022/12/16 00:39:26;;;;;;;29.70;15.40;;;-3274.50;93.60;;;;;;5013306;28;20113;-67
2022/12/16 00:41:51;;;;;;;30.10;14.82;;;-3274.50;93.70;;;;;;5029039;28;20538;-67
2022/12/16 00:44:16;;;;;;;27.15;14.98;;;-3274.50;93.80;;;;;;5029336;28;20044;-67
2022/12/16 00:46:42;;;;;;;26.98;15.90;;;-3274.50;93.80;;;;;;5026249;28;20029;-67
2022/12/16 00:49:07;;;;;;;28.33;15.80;;;-3274.60;93.80;;;;;;5024793;28;20038;-66
2022/12/16 00:51:33;;;;;;;25.40;14.95;;;-3274.50;93.70;;;;;;5031668;28;20032;-69
2022/12/16 00:53:59;;;;;;;26.25;15.15;;;-3274.60;93.70;;;;;;5029142;28;20083;-67
2022/12/16 00:56:24;;;;;;;31.08;16.10;;;-3274.50;93.60;;;;;;5031535;28;20208;-67
2022/12/16 00:58:50;;;;;;;28.35;15.50;;;-3274.50;93.60;;;;;;5026881;28;20385;-67
2022/12/16 01:01:15;;;;;;;26.83;15.10;;;-3274.40;93.70;;;;;;5032029;28;20025;-68
2022/12/16 01:03:41;;;;;;;24.45;14.75;;;-3274.40;93.80;;;;;;5033863;28;20050;-68
2022/12/16 01:06:11;;;;;;;23.42;15.18;;;-3274.40;93.90;;;;;;5028514;28;20034;-67
2022/12/16 01:08:37;;;;;;;26.00;14.48;;;-3274.40;93.90;;;;;;5032008;28;20033;-67
2022/12/16 01:11:03;;;;;;;25.77;14.00;;;-3274.30;93.90;;;;;;5031747;28;20586;-68
2022/12/16 01:13:28;;;;;;;28.02;15.20;;;-3274.40;94.00;;;;;;5044147;28;20025;-68
2022/12/16 01:15:57;;;;;;;27.25;15.25;;;-3274.40;94.00;;;;;;5032275;28;20033;-66
2022/12/16 01:18:23;;;;;;;27.08;15.25;;;-3274.30;94.00;;;;;;5044607;28;20063;-68
2022/12/16 01:20:48;;;;;;;27.75;15.32;;;-3274.40;94.10;;;;;;5034043;28;20029;-68
2022/12/16 01:23:14;;;;;;;29.75;15.88;;;-3274.40;94.10;;;;;;5031187;28;20053;-68
2022/12/16 01:25:39;;;;;;;29.52;15.20;;;-3274.40;94.10;;;;;;5025760;28;20065;-69
2022/12/16 01:28:05;;;;;;;32.08;14.98;;;-3274.40;94.00;;;;;;5029228;28;20037;-68
2022/12/16 01:30:30;;;;;;;29.42;15.25;;;-3274.30;94.10;;;;;;5025550;28;20038;-68
2022/12/16 01:32:56;;;;;;;26.98;15.82;;;-3274.30;94.10;;;;;;5028349;28;20038;-66
2022/12/16 01:35:21;;;;;;;26.67;14.60;;;-3274.40;94.10;;;;;;5046471;28;20084;-67
2022/12/16 01:37:47;;;;;;;25.85;14.65;;;-3274.30;94.00;;;;;;5028278;28;20033;-68
2022/12/16 01:40:17;;;;;;;26.95;15.27;;;-3274.30;94.00;;;;;;5023833;28;20340;-69
2022/12/16 01:42:44;;;;;;;26.10;13.93;;;-3274.40;94.00;;;;;;5028903;28;20047;-68
2022/12/16 01:45:29;;;;;;;25.15;14.05;;;-3274.40;94.00;;;;;;5028385;28;20043;-68
2022/12/16 01:47:58;;;;;;;25.20;14.15;;;-3274.40;93.90;;;;;;5024266;28;20029;-69
2022/12/16 01:50:25;;;;;;;27.00;14.52;;;-3274.40;93.90;;;;;;5026093;28;20172;-69
2022/12/16 01:52:54;;;;;;;26.50;14.77;;;-3274.30;93.90;;;;;;5027534;28;20037;-67
2022/12/16 01:55:37;;;;;;;27.58;13.90;;;-3274.30;93.90;;;;;;5023713;28;20026;-67
2022/12/16 01:58:10;;;;;;;23.02;13.63;;;-3274.30;93.80;;;;;;5024919;28;20038;-68
2022/12/16 02:00:36;;;;;;;25.27;13.30;;;-3274.30;93.80;;;;;;5023194;28;20034;-67
2022/12/16 02:03:05;;;;;;;28.95;13.68;;;-3274.30;93.80;;;;;;5036762;28;20498;-69
2022/12/16 02:05:33;;;;;;;25.00;14.00;;;-3274.30;93.80;;;;;;5036900;28;20049;-68
2022/12/16 02:08:14;;;;;;;22.58;13.52;;;-3274.30;93.70;;;;;;5020960;28;20087;-67
2022/12/16 02:10:42;;;;;;;21.02;13.10;;;-3274.30;93.80;;;;;;5029896;28;20039;-68
2022/12/16 02:13:29;;;;;;;25.02;13.48;;;-3274.30;93.80;;;;;;5023571;28;20457;-67
2022/12/16 02:16:19;;;;;;;23.52;14.15;;;-3274.30;93.80;;;;;;5029492;28;20506;-68
2022/12/16 02:19:10;;;;;;;27.42;14.25;;;-3274.30;93.90;;;;;;5013597;28;20068;-68
2022/12/16 02:21:47;;;;;;;22.42;12.90;;;-3274.30;93.90;;;;;;5041029;28;20045;-68
2022/12/16 02:24:50;;;;;;;26.70;13.55;;;-3274.30;94.00;;;;;;5011383;28;20523;-69
2022/12/16 02:27:53;;;;;;;24.38;12.70;;;-3274.30;93.90;;;;;;5018971;28;20029;-68
2022/12/16 02:30:24;;;;;;;22.67;12.85;;;-3274.30;93.90;;;;;;5019470;28;20033;-68
2022/12/16 02:33:12;;;;;;;25.95;13.52;;;-3274.30;94.00;;;;;;5030578;28;20461;-67
2022/12/16 02:36:05;;;;;;;25.90;14.10;;;-3274.40;94.10;;;;;;5027588;28;20029;-69
2022/12/16 02:38:58;;;;;;;23.73;14.07;;;-3274.40;94.00;;;;;;5029682;28;20040;-69
2022/12/16 02:41:42;;;;;;;24.27;14.27;;;-3274.30;94.00;;;;;;5027352;28;20040;-69
2022/12/16 02:44:10;;;;;;;24.23;13.57;;;-3274.30;94.00;;;;;;5026821;28;20045;-67
2022/12/16 02:46:41;;;;;;;27.30;14.27;;;-3274.30;93.90;;;;;;5023950;28;20327;-67
2022/12/16 02:49:27;;;;;;;25.48;14.35;;;-3274.30;93.90;;;;;;5028282;28;20029;-69
2022/12/16 02:51:54;;;;;;;24.98;13.85;;;-3274.30;93.90;;;;;;5007117;28;20100;-68
2022/12/16 02:54:21;;;;;;;25.40;14.43;;;-3274.30;93.90;;;;;;5036835;28;20021;-68
2022/12/16 02:57:24;;;;;;;25.98;14.35;;;-3274.30;94.00;;;;;;5029922;28;20029;-67
2022/12/16 03:00:07;;;;;;;23.27;14.10;;;-3274.30;94.00;;;;;;5026229;28;20041;-68
2022/12/16 03:02:44;;;;;;;24.02;14.23;;;-3274.30;94.10;;;;;;5040134;28;20377;-67
2022/12/16 03:05:19;;;;;;;27.48;14.15;;;-3274.30;94.10;;;;;;5021713;28;20389;-69
2022/12/16 03:07:47;;;;;;;23.67;13.30;;;-3274.30;94.20;;;;;;5030474;28;20061;-68
2022/12/16 03:10:17;;;;;;;25.70;13.32;;;-3274.30;94.10;;;;;;5012518;28;20184;-68
2022/12/16 03:12:44;;;;;;;25.02;13.38;;;-3274.30;94.10;;;;;;5024181;28;20497;-68
2022/12/16 03:15:15;;;;;;;27.10;13.60;;;-3274.20;94.10;;;;;;5026087;28;20405;-67
2022/12/16 03:17:45;;;;;;;23.65;14.00;;;-3274.30;94.20;;;;;;5029992;28;20037;-67
2022/12/16 03:20:20;;;;;;;23.42;14.02;;;-3274.30;94.20;;;;;;5029769;28;20081;-67
2022/12/16 03:22:50;;;;;;;22.77;13.05;;;-3274.30;94.20;;;;;;5029507;28;20037;-68
2022/12/16 03:25:19;;;;;;;25.90;14.82;;;-3274.30;94.20;;;;;;5029442;28;20025;-69
2022/12/16 03:28:16;;;;;;;23.40;13.10;;;-3274.30;94.20;;;;;;5026004;28;20034;-67
2022/12/16 03:30:47;;;;;;;25.13;13.57;;;-3274.20;94.20;;;;;;5024176;28;20026;-67
2022/12/16 03:33:31;;;;;;;27.48;14.25;;;-3274.30;94.20;;;;;;5029282;28;20026;-67
2022/12/16 03:36:03;;;;;;;27.85;14.38;;;-3274.30;94.30;;;;;;5028499;28;20469;-66
2022/12/16 03:38:31;;;;;;;26.92;14.20;;;-3274.30;94.30;;;;;;5028951;28;20033;-67
2022/12/16 03:40:58;;;;;;;23.75;14.35;;;-3274.30;94.30;;;;;;5026047;28;20112;-69
2022/12/16 03:43:24;;;;;;;23.15;14.57;;;-3274.30;94.30;;;;;;5028996;28;20041;-67
2022/12/16 03:45:53;;;;;;;26.10;14.18;;;-3274.30;94.30;;;;;;5034614;28;20025;-66
2022/12/16 03:48:23;;;;;;;28.63;14.70;;;-3274.30;94.40;;;;;;5032107;28;20037;-68
2022/12/16 03:50:49;;;;;;;26.27;14.45;;;-3274.30;94.40;;;;;;5023333;28;20688;-66
2022/12/16 03:53:15;;;;;;;24.52;13.55;;;-3274.30;94.40;;;;;;5012785;28;20036;-67
2022/12/16 03:55:40;;;;;;;27.48;14.23;;;-3274.30;94.40;;;;;;5030360;28;20045;-69
2022/12/16 03:58:06;;;;;;;25.65;15.25;;;-3274.30;94.40;;;;;;5031798;28;20038;-67
2022/12/16 04:00:32;;;;;;;28.70;13.80;;;-3274.30;94.40;;;;;;5028165;28;20113;-67
2022/12/16 04:02:57;;;;;;;25.55;14.93;;;-3274.40;94.40;;;;;;5032878;28;20037;-69
2022/12/16 04:05:23;;;;;;;28.70;14.73;;;-3274.40;94.40;;;;;;5026340;28;20053;-68
2022/12/16 04:07:49;;;;;;;26.67;14.45;;;-3274.40;94.40;;;;;;5034691;28;20037;-67
2022/12/16 04:10:15;;;;;;;26.48;14.35;;;-3274.40;94.40;;;;;;5027943;28;20393;-68
2022/12/16 04:27:23;;;;;;;24.13;13.77;;;-3274.40;94.30;;;;;;5030266;28;20171;-67
2022/12/16 04:29:18;;;;;;;29.33;14.30;;;-3274.30;94.30;;;;;;5027664;28;21470;-68
2022/12/16 04:31:43;;;;;;;24.05;13.98;;;-3274.20;94.40;;;;;;5029952;28;20041;-68
2022/12/16 04:34:28;;;;;;;26.70;15.10;;;-3274.20;94.40;;;;;;5030250;28;20047;-67
